createdAt,value
2022-10-05T00:00:32.747Z,99.99
2022-10-05T00:01:32.733Z,99.99
2022-10-05T00:02:32.631Z,99.99
2022-10-05T00:03:32.583Z,99.99
2022-10-05T00:04:32.561Z,99.99
2022-10-05T00:05:32.575Z,99.99
2022-10-05T00:06:32.416Z,99.99
2022-10-05T00:07:32.368Z,99.99
2022-10-05T00:08:32.310Z,99.99
2022-10-05T00:09:32.258Z,99.99
2022-10-05T00:10:32.242Z,99.99
2022-10-05T00:11:32.261Z,99.99
2022-10-05T00:12:32.095Z,99.99
2022-10-05T00:13:32.044Z,99.99
2022-10-05T00:14:31.988Z,99.99
2022-10-05T00:15:31.937Z,99.99
2022-10-05T00:16:32.029Z,99.99
2022-10-05T00:17:31.827Z,99.99
2022-10-05T00:18:31.786Z,99.99
2022-10-05T00:19:31.718Z,99.99
2022-10-05T00:20:31.671Z,99.99
2022-10-05T00:21:31.611Z,99.99
2022-10-05T00:22:31.675Z,99.99
2022-10-05T00:23:31.502Z,99.99
2022-10-05T00:24:31.458Z,99.99
2022-10-05T00:25:31.402Z,99.99
2022-10-05T00:26:31.343Z,99.99
2022-10-05T00:27:31.290Z,99.99
2022-10-05T00:28:31.309Z,99.99
2022-10-05T00:29:31.191Z,99.99
2022-10-05T00:30:31.135Z,99.99
2022-10-05T00:31:31.083Z,99.99
2022-10-05T00:32:31.017Z,99.99
2022-10-05T00:33:30.981Z,99.99
2022-10-05T00:34:30.913Z,99.99
2022-10-05T00:35:30.859Z,99.99
2022-10-05T00:36:30.802Z,99.99
2022-10-05T00:37:30.746Z,99.99
2022-10-05T00:38:30.721Z,99.99
2022-10-05T00:39:30.639Z,99.99
2022-10-05T00:40:30.613Z,99.99
2022-10-05T00:41:30.531Z,99.99
2022-10-05T00:42:30.483Z,99.99
2022-10-05T00:43:30.426Z,99.99
2022-10-05T00:44:30.400Z,99.99
2022-10-05T00:45:30.360Z,99.99
2022-10-05T00:46:30.260Z,99.99
2022-10-05T00:47:30.211Z,99.99
2022-10-05T00:48:30.158Z,99.99
2022-10-05T00:49:30.101Z,99.99
2022-10-05T00:50:30.067Z,99.99
2022-10-05T00:51:29.988Z,99.99
2022-10-05T00:52:29.936Z,99.99
2022-10-05T00:53:29.883Z,99.99
2022-10-05T00:54:29.830Z,99.99
2022-10-05T00:55:29.777Z,99.99
2022-10-05T00:56:29.743Z,99.99
2022-10-05T00:57:29.667Z,99.99
2022-10-05T00:58:29.631Z,99.99
2022-10-05T00:59:29.556Z,99.99
2022-10-05T01:00:29.501Z,99.99
2022-10-05T01:01:29.505Z,99.99
2022-10-05T01:02:34.382Z,99.99
2022-10-05T01:03:29.337Z,99.99
2022-10-05T01:04:29.282Z,99.99
2022-10-05T01:05:29.230Z,99.99
2022-10-05T01:06:29.173Z,99.99
2022-10-05T01:07:29.120Z,99.99
2022-10-05T01:08:29.081Z,99.99
2022-10-05T01:09:29.009Z,99.99
2022-10-05T01:10:28.978Z,99.99
2022-10-05T01:11:28.904Z,99.99
2022-10-05T01:12:28.847Z,99.99
2022-10-05T01:13:28.813Z,99.99
2022-10-05T01:14:28.738Z,99.99
2022-10-05T01:15:28.683Z,99.99
2022-10-05T01:16:28.667Z,99.99
2022-10-05T01:17:28.576Z,99.99
2022-10-05T01:18:28.537Z,99.99
2022-10-05T01:19:28.465Z,99.99
2022-10-05T01:20:28.413Z,99.99
2022-10-05T01:21:28.358Z,99.99
2022-10-05T01:22:28.306Z,99.99
2022-10-05T01:23:28.275Z,99.99
2022-10-05T01:24:28.195Z,99.99
2022-10-05T01:25:28.141Z,99.99
2022-10-05T01:26:28.088Z,99.99
2022-10-05T01:27:28.031Z,99.99
2022-10-05T01:28:28.027Z,99.99
2022-10-05T01:29:27.943Z,99.99
2022-10-05T01:30:27.869Z,99.99
2022-10-05T01:31:27.852Z,99.99
2022-10-05T01:32:27.761Z,99.99
2022-10-05T01:33:27.705Z,99.99
2022-10-05T01:34:27.669Z,99.99
2022-10-05T01:35:27.598Z,99.99
2022-10-05T01:36:27.541Z,99.99
2022-10-05T01:37:27.486Z,99.99
2022-10-05T01:38:27.434Z,99.99
2022-10-05T01:39:27.406Z,99.99
2022-10-05T01:40:27.327Z,99.99
2022-10-05T01:41:27.268Z,99.99
2022-10-05T01:42:27.219Z,99.99
2022-10-05T01:43:27.159Z,99.99
2022-10-05T01:44:27.105Z,99.99
2022-10-05T01:45:27.111Z,99.99
2022-10-05T01:46:26.999Z,99.99
2022-10-05T01:47:26.943Z,99.99
2022-10-05T01:48:26.887Z,99.99
2022-10-05T01:49:26.831Z,99.99
2022-10-05T01:50:26.787Z,99.99
2022-10-05T01:51:33.783Z,99.99
2022-10-05T01:52:26.672Z,99.99
2022-10-05T01:53:26.616Z,99.99
2022-10-05T01:54:26.561Z,99.99
2022-10-05T01:55:26.506Z,99.99
2022-10-05T01:56:26.454Z,99.99
2022-10-05T01:57:26.420Z,99.99
2022-10-05T01:58:26.344Z,99.99
2022-10-05T01:59:26.290Z,99.99
2022-10-05T02:00:26.232Z,99.99
2022-10-05T02:01:26.265Z,99.99
2022-10-05T02:02:26.222Z,99.99
2022-10-05T02:03:26.071Z,99.99
2022-10-05T02:04:56.933Z,99.99
2022-10-05T02:05:25.960Z,99.99
2022-10-05T02:06:25.908Z,99.99
2022-10-05T02:07:25.877Z,99.99
2022-10-05T02:08:25.798Z,99.99
2022-10-05T02:09:25.747Z,99.99
2022-10-05T02:10:25.691Z,99.99
2022-10-05T02:11:25.634Z,99.99
2022-10-05T02:12:25.580Z,99.99
2022-10-05T02:13:25.542Z,99.99
2022-10-05T02:14:25.471Z,99.99
2022-10-05T02:15:25.417Z,99.99
2022-10-05T02:16:25.395Z,99.99
2022-10-05T02:17:25.321Z,99.99
2022-10-05T02:18:25.277Z,99.99
2022-10-05T02:19:25.200Z,99.99
2022-10-05T02:20:25.148Z,99.99
2022-10-05T02:21:25.137Z,99.99
2022-10-05T02:22:25.039Z,99.99
2022-10-05T02:23:24.984Z,99.99
2022-10-05T02:24:24.965Z,99.99
2022-10-05T02:25:24.871Z,99.99
2022-10-05T02:26:24.820Z,99.99
2022-10-05T02:27:24.773Z,99.99
2022-10-05T02:28:24.786Z,99.99
2022-10-05T02:29:24.657Z,99.99
2022-10-05T02:30:24.630Z,99.99
2022-10-05T02:31:24.571Z,99.99
2022-10-05T02:32:24.493Z,99.99
2022-10-05T02:33:24.443Z,99.99
2022-10-05T02:34:24.384Z,99.99
2022-10-05T02:35:24.332Z,99.99
2022-10-05T02:36:24.303Z,99.99
2022-10-05T02:37:24.219Z,99.99
2022-10-05T02:38:24.171Z,99.99
2022-10-05T02:39:24.113Z,99.99
2022-10-05T02:40:24.061Z,99.99
2022-10-05T02:41:24.005Z,99.99
2022-10-05T02:42:23.977Z,99.99
2022-10-05T02:43:23.898Z,99.99
2022-10-05T02:44:23.841Z,99.99
2022-10-05T02:45:23.784Z,99.99
2022-10-05T02:46:23.799Z,99.99
2022-10-05T02:47:23.680Z,99.99
2022-10-05T02:48:23.646Z,99.99
2022-10-05T02:49:23.566Z,99.99
2022-10-05T02:50:23.515Z,99.99
2022-10-05T02:51:23.495Z,99.99
2022-10-05T02:52:23.404Z,99.99
2022-10-05T02:53:23.349Z,99.99
2022-10-05T02:54:23.313Z,99.99
2022-10-05T02:55:23.243Z,99.99
2022-10-05T02:56:23.186Z,99.99
2022-10-05T02:57:23.131Z,99.99
2022-10-05T02:58:23.079Z,99.99
2022-10-05T02:59:23.051Z,99.99
2022-10-05T03:00:22.969Z,99.99
2022-10-05T03:01:22.925Z,99.99
2022-10-05T03:02:22.923Z,99.99
2022-10-05T03:03:22.805Z,99.99
2022-10-05T03:04:22.751Z,99.99
2022-10-05T03:05:22.719Z,99.99
2022-10-05T03:06:22.639Z,99.99
2022-10-05T03:07:22.590Z,99.99
2022-10-05T03:08:22.529Z,99.99
2022-10-05T03:09:22.493Z,99.99
2022-10-05T03:10:22.425Z,99.99
2022-10-05T03:11:22.382Z,99.99
2022-10-05T03:12:22.311Z,99.99
2022-10-05T03:13:22.254Z,99.99
2022-10-05T03:14:22.205Z,99.99
2022-10-05T03:15:22.146Z,99.99
2022-10-05T03:16:22.234Z,99.99
2022-10-05T03:17:22.033Z,99.99
2022-10-05T03:18:21.981Z,99.99
2022-10-05T03:19:21.926Z,99.99
2022-10-05T03:20:21.874Z,99.99
2022-10-05T03:21:21.837Z,99.99
2022-10-05T03:22:21.760Z,99.99
2022-10-05T03:23:21.707Z,99.99
2022-10-05T03:24:21.651Z,99.99
2022-10-05T03:25:21.596Z,99.99
2022-10-05T03:26:21.540Z,99.99
2022-10-05T03:27:21.510Z,99.99
2022-10-05T03:28:21.462Z,99.99
2022-10-05T03:29:21.380Z,99.99
2022-10-05T03:30:21.321Z,99.99
2022-10-05T03:31:21.325Z,99.99
2022-10-05T03:32:21.215Z,99.99
2022-10-05T03:33:21.172Z,99.99
2022-10-05T03:34:21.101Z,99.99
2022-10-05T03:35:21.046Z,99.99
2022-10-05T03:36:20.991Z,99.99
2022-10-05T03:37:20.935Z,99.99
2022-10-05T03:38:20.908Z,99.99
2022-10-05T03:39:20.839Z,99.99
2022-10-05T03:40:20.773Z,99.99
2022-10-05T03:41:20.715Z,99.99
2022-10-05T03:42:20.664Z,99.99
2022-10-05T03:43:20.607Z,99.99
2022-10-05T03:44:20.570Z,99.99
2022-10-05T03:45:20.499Z,99.99
2022-10-05T03:46:20.540Z,99.99
2022-10-05T03:47:20.385Z,99.99
2022-10-05T03:48:21.213Z,99.99
2022-10-05T03:49:20.307Z,99.99
2022-10-05T03:50:20.223Z,99.99
2022-10-05T03:51:20.172Z,99.99
2022-10-05T03:52:20.134Z,99.99
2022-10-05T03:53:20.061Z,99.99
2022-10-05T03:54:20.008Z,99.99
2022-10-05T03:55:19.970Z,99.99
2022-10-05T03:56:19.900Z,99.99
2022-10-05T03:57:19.843Z,99.99
2022-10-05T03:58:19.788Z,99.99
2022-10-05T03:59:19.733Z,99.99
2022-10-05T04:00:19.695Z,99.99
2022-10-05T04:01:19.662Z,99.99
2022-10-05T04:02:19.613Z,99.99
2022-10-05T04:03:19.515Z,99.99
2022-10-05T04:04:19.464Z,99.99
2022-10-05T04:05:19.428Z,99.99
2022-10-05T04:06:19.353Z,99.99
2022-10-05T04:07:19.297Z,99.99
2022-10-05T04:08:19.244Z,99.99
2022-10-05T04:09:19.188Z,99.99
2022-10-05T04:10:19.149Z,99.99
2022-10-05T04:11:19.103Z,99.99
2022-10-05T04:12:19.028Z,99.99
2022-10-05T04:13:18.968Z,99.99
2022-10-05T04:14:18.917Z,99.99
2022-10-05T04:15:19.230Z,99.99
2022-10-05T04:16:18.829Z,99.99
2022-10-05T04:17:18.778Z,99.99
2022-10-05T04:18:18.697Z,99.99
2022-10-05T04:19:18.646Z,99.99
2022-10-05T04:20:18.589Z,99.99
2022-10-05T04:21:23.352Z,99.99
2022-10-05T04:22:18.481Z,99.99
2022-10-05T04:23:18.453Z,99.99
2022-10-05T04:24:18.379Z,99.99
2022-10-05T04:25:18.324Z,99.99
2022-10-05T04:26:18.262Z,99.99
2022-10-05T04:27:18.211Z,99.99
2022-10-05T04:28:18.225Z,99.99
2022-10-05T04:29:18.123Z,99.99
2022-10-05T04:30:18.044Z,99.99
2022-10-05T04:31:18.032Z,99.99
2022-10-05T04:32:17.937Z,99.99
2022-10-05T04:33:17.878Z,99.99
2022-10-05T04:34:17.829Z,99.99
2022-10-05T04:35:17.792Z,99.99
2022-10-05T04:36:17.717Z,99.99
2022-10-05T04:37:17.667Z,99.99
2022-10-05T04:38:17.608Z,99.99
2022-10-05T04:39:17.559Z,99.99
2022-10-05T04:40:17.522Z,99.99
2022-10-05T04:41:17.447Z,99.99
2022-10-05T04:42:17.389Z,99.99
2022-10-05T04:43:17.371Z,99.99
2022-10-05T04:44:17.279Z,99.99
2022-10-05T04:45:17.225Z,99.99
2022-10-05T04:46:17.269Z,99.99
2022-10-05T04:47:17.117Z,99.99
2022-10-05T04:48:17.062Z,99.99
2022-10-05T04:49:17.006Z,99.99
2022-10-05T04:50:16.955Z,99.99
2022-10-05T04:51:16.898Z,99.99
2022-10-05T04:52:16.871Z,99.99
2022-10-05T04:53:16.790Z,99.99
2022-10-05T04:54:16.731Z,99.99
2022-10-05T04:55:16.679Z,99.99
2022-10-05T04:56:16.624Z,99.99
2022-10-05T04:57:16.573Z,99.99
2022-10-05T04:58:16.542Z,99.99
2022-10-05T04:59:16.459Z,99.99
2022-10-05T05:00:16.408Z,99.99
2022-10-05T05:01:16.425Z,99.99
2022-10-05T05:02:16.296Z,99.99
2022-10-05T05:03:16.243Z,99.99
2022-10-05T05:04:16.275Z,99.99
2022-10-05T05:05:16.132Z,99.99
2022-10-05T05:06:17.711Z,99.99
2022-10-05T05:07:16.021Z,99.99
2022-10-05T05:08:15.967Z,99.99
2022-10-05T05:09:15.912Z,99.99
2022-10-05T05:10:15.886Z,99.99
2022-10-05T05:11:18.182Z,99.99
2022-10-05T05:12:15.747Z,99.99
2022-10-05T05:13:15.692Z,99.99
2022-10-05T05:14:15.637Z,99.99
2022-10-05T05:15:15.583Z,99.99
2022-10-05T05:16:15.569Z,99.99
2022-10-05T05:17:15.476Z,99.99
2022-10-05T05:18:15.421Z,99.99
2022-10-05T05:19:15.363Z,99.99
2022-10-05T05:20:15.313Z,99.99
2022-10-05T05:21:15.256Z,99.99
2022-10-05T05:22:15.224Z,99.99
2022-10-05T05:23:15.145Z,99.99
2022-10-05T05:24:15.092Z,99.99
2022-10-05T05:25:15.036Z,99.99
2022-10-05T05:26:14.984Z,99.99
2022-10-05T05:27:14.959Z,99.99
2022-10-05T05:28:14.933Z,99.99
2022-10-05T05:29:14.819Z,99.99
2022-10-05T05:30:14.767Z,99.99
2022-10-05T05:31:14.797Z,99.99
2022-10-05T05:32:14.654Z,99.99
2022-10-05T05:33:14.617Z,99.99
2022-10-05T05:34:14.546Z,99.99
2022-10-05T05:35:14.490Z,99.99
2022-10-05T05:36:15.267Z,99.99
2022-10-05T05:37:14.381Z,99.99
2022-10-05T05:38:14.347Z,99.99
2022-10-05T05:39:14.272Z,99.99
2022-10-05T05:40:14.217Z,99.99
2022-10-05T05:41:14.290Z,99.99
2022-10-05T05:42:14.106Z,99.99
2022-10-05T05:43:14.085Z,99.99
2022-10-05T05:44:13.997Z,99.99
2022-10-05T05:45:13.944Z,99.99
2022-10-05T05:46:13.906Z,99.99
2022-10-05T05:47:14.208Z,99.99
2022-10-05T05:48:13.779Z,99.99
2022-10-05T05:49:13.760Z,99.99
2022-10-05T05:50:13.670Z,99.99
2022-10-05T05:51:13.612Z,99.99
2022-10-05T05:52:13.560Z,99.99
2022-10-05T05:53:13.507Z,99.99
2022-10-05T05:54:13.450Z,99.99
2022-10-05T05:55:13.413Z,99.99
2022-10-05T05:56:13.338Z,99.99
2022-10-05T05:57:13.290Z,99.99
2022-10-05T05:58:13.228Z,99.99
2022-10-05T05:59:13.176Z,99.99
2022-10-05T06:00:13.146Z,99.99
2022-10-05T06:01:30.569Z,99.99
2022-10-05T06:02:13.138Z,99.99
2022-10-05T06:03:13.056Z,99.99
2022-10-05T06:04:12.902Z,99.99
2022-10-05T06:05:12.844Z,99.99
2022-10-05T06:06:12.810Z,99.99
2022-10-05T06:07:12.737Z,99.99
2022-10-05T06:08:12.679Z,99.99
2022-10-05T06:09:12.624Z,99.99
2022-10-05T06:10:12.568Z,99.99
2022-10-05T06:11:12.538Z,99.99
2022-10-05T06:12:12.459Z,99.99
2022-10-05T06:13:12.405Z,99.99
2022-10-05T06:14:12.353Z,99.99
2022-10-05T06:15:12.304Z,99.99
2022-10-05T06:16:12.295Z,99.99
2022-10-05T06:17:12.205Z,99.99
2022-10-05T06:18:12.129Z,99.99
2022-10-05T06:19:12.081Z,99.99
2022-10-05T06:20:12.018Z,99.99
2022-10-05T06:21:11.969Z,99.99
2022-10-05T06:22:11.925Z,99.99
2022-10-05T06:23:11.854Z,99.99
2022-10-05T06:24:11.797Z,99.99
2022-10-05T06:25:11.746Z,99.99
2022-10-05T06:26:11.694Z,99.99
2022-10-05T06:27:11.655Z,99.99
2022-10-05T06:28:11.650Z,99.99
2022-10-05T06:29:11.524Z,99.99
2022-10-05T06:30:11.471Z,99.99
2022-10-05T06:31:11.448Z,99.99
2022-10-05T06:32:11.436Z,99.99
2022-10-05T06:33:11.306Z,99.99
2022-10-05T06:34:11.254Z,99.99
2022-10-05T06:35:11.200Z,99.99
2022-10-05T06:36:11.143Z,99.99
2022-10-05T06:37:11.093Z,99.99
2022-10-05T06:38:11.065Z,99.99
2022-10-05T06:39:10.990Z,99.99
2022-10-05T06:40:10.931Z,99.99
2022-10-05T06:41:10.867Z,99.99
2022-10-05T06:42:10.813Z,99.99
2022-10-05T06:43:10.758Z,99.99
2022-10-05T06:44:10.748Z,99.99
2022-10-05T06:45:10.651Z,99.99
2022-10-05T06:46:10.711Z,99.99
2022-10-05T06:47:10.543Z,99.99
2022-10-05T06:48:10.484Z,99.99
2022-10-05T06:49:10.430Z,99.99
2022-10-05T06:50:10.434Z,99.99
2022-10-05T06:51:10.339Z,99.99
2022-10-05T06:52:10.268Z,99.99
2022-10-05T06:53:10.210Z,99.99
2022-10-05T06:54:10.161Z,99.99
2022-10-05T06:55:14.000Z,99.99
2022-10-05T06:56:10.068Z,99.99
2022-10-05T06:57:09.999Z,99.99
2022-10-05T06:58:09.940Z,99.99
2022-10-05T06:59:09.894Z,99.99
2022-10-05T07:00:09.834Z,99.99
2022-10-05T07:01:09.833Z,99.99
2022-10-05T07:02:09.769Z,99.99
2022-10-05T07:03:09.669Z,99.99
2022-10-05T07:04:09.618Z,99.99
2022-10-05T07:05:09.558Z,99.99
2022-10-05T07:06:09.508Z,99.99
2022-10-05T07:07:09.470Z,99.99
2022-10-05T07:08:09.398Z,99.99
2022-10-05T07:09:09.346Z,99.99
2022-10-05T07:10:09.289Z,99.99
2022-10-05T07:11:09.239Z,99.99
2022-10-05T07:12:09.201Z,99.99
2022-10-05T07:13:09.129Z,99.99
2022-10-05T07:14:09.074Z,99.99
2022-10-05T07:15:09.020Z,99.99
2022-10-05T07:16:09.009Z,99.99
2022-10-05T07:17:08.938Z,99.99
2022-10-05T07:18:08.859Z,99.99
2022-10-05T07:19:08.802Z,99.99
2022-10-05T07:20:08.751Z,99.99
2022-10-05T07:21:08.694Z,99.99
2022-10-05T07:22:08.682Z,99.99
2022-10-05T07:23:08.613Z,99.99
2022-10-05T07:24:08.533Z,99.99
2022-10-05T07:25:08.519Z,99.99
2022-10-05T07:26:08.450Z,99.99
2022-10-05T07:27:08.386Z,99.99
2022-10-05T07:28:08.412Z,99.99
2022-10-05T07:29:08.283Z,99.99
2022-10-05T07:30:08.211Z,99.99
2022-10-05T07:31:08.226Z,99.99
2022-10-05T07:32:08.101Z,99.99
2022-10-05T07:33:08.047Z,99.99
2022-10-05T07:34:08.030Z,99.99
2022-10-05T07:35:07.939Z,99.99
2022-10-05T07:36:07.885Z,99.99
2022-10-05T07:37:07.828Z,99.99
2022-10-05T07:38:07.780Z,99.99
2022-10-05T07:39:07.726Z,99.99
2022-10-05T07:40:07.707Z,99.99
2022-10-05T07:41:07.650Z,99.99
2022-10-05T07:42:07.561Z,99.99
2022-10-05T07:43:07.509Z,99.99
2022-10-05T07:44:11.781Z,99.99
2022-10-05T07:45:07.401Z,99.99
2022-10-05T07:46:07.445Z,99.99
2022-10-05T07:47:07.291Z,99.99
2022-10-05T07:48:07.243Z,99.99
2022-10-05T07:49:07.187Z,99.99
2022-10-05T07:50:07.134Z,99.99
2022-10-05T07:51:07.095Z,99.99
2022-10-05T07:52:07.026Z,99.99
2022-10-05T07:53:06.971Z,99.99
2022-10-05T07:54:06.919Z,99.99
2022-10-05T07:55:06.863Z,99.99
2022-10-05T07:56:06.848Z,99.99
2022-10-05T07:57:06.756Z,99.99
2022-10-05T07:58:06.702Z,99.99
2022-10-05T07:59:06.648Z,99.99
2022-10-05T08:00:06.597Z,99.99
2022-10-05T08:01:06.543Z,99.99
2022-10-05T08:02:06.596Z,99.99
2022-10-05T08:03:06.589Z,99.99
2022-10-05T08:04:06.383Z,99.99
2022-10-05T08:05:06.332Z,99.99
2022-10-05T08:06:06.279Z,99.99
2022-10-05T08:07:15.342Z,99.99
2022-10-05T08:08:06.253Z,99.99
2022-10-05T08:09:06.116Z,99.99
2022-10-05T08:10:06.067Z,99.99
2022-10-05T08:11:06.013Z,99.99
2022-10-05T08:12:05.988Z,99.99
2022-10-05T08:13:05.907Z,99.99
2022-10-05T08:14:05.861Z,99.99
2022-10-05T08:15:05.805Z,99.99
2022-10-05T08:16:05.865Z,99.99
2022-10-05T08:17:05.702Z,99.99
2022-10-05T08:18:05.672Z,99.99
2022-10-05T08:19:05.604Z,99.99
2022-10-05T08:20:05.562Z,99.99
2022-10-05T08:21:05.506Z,99.99
2022-10-05T08:22:05.458Z,99.99
2022-10-05T08:23:05.437Z,98.53
2022-10-05T08:24:05.364Z,98.72
2022-10-05T08:25:05.318Z,98.10
2022-10-05T08:26:05.273Z,98.43
2022-10-05T08:27:05.224Z,98.86
2022-10-05T08:28:05.262Z,97.81
2022-10-05T08:29:05.150Z,97.04
2022-10-05T08:30:05.087Z,97.71
2022-10-05T08:31:05.126Z,97.33
2022-10-05T08:32:04.997Z,95.79
2022-10-05T08:33:04.971Z,95.36
2022-10-05T08:34:04.962Z,94.92
2022-10-05T08:35:04.862Z,94.15
2022-10-05T08:36:04.818Z,94.88
2022-10-05T08:37:04.775Z,93.15
2022-10-05T08:38:04.735Z,92.76
2022-10-05T08:39:04.691Z,93.49
2022-10-05T08:40:04.666Z,94.21
2022-10-05T08:41:04.605Z,93.87
2022-10-05T08:42:04.563Z,92.95
2022-10-05T08:43:04.517Z,91.89
2022-10-05T08:44:04.489Z,86.74
2022-10-05T08:45:04.462Z,87.85
2022-10-05T08:46:04.444Z,90.83
2022-10-05T08:47:04.393Z,90.78
2022-10-05T08:48:04.311Z,89.77
2022-10-05T08:49:04.268Z,87.66
2022-10-05T08:50:04.227Z,89.35
2022-10-05T08:51:04.226Z,90.50
2022-10-05T08:52:04.141Z,90.79
2022-10-05T08:53:04.098Z,90.59
2022-10-05T08:54:04.056Z,90.98
2022-10-05T08:55:04.019Z,90.31
2022-10-05T08:56:03.971Z,90.12
2022-10-05T08:57:03.959Z,91.13
2022-10-05T08:58:03.915Z,89.39
2022-10-05T08:59:03.851Z,86.83
2022-10-05T09:00:03.807Z,88.09
2022-10-05T09:01:03.819Z,87.41
2022-10-05T09:02:03.730Z,87.18
2022-10-05T09:03:03.851Z,88.62
2022-10-05T09:04:03.639Z,90.06
2022-10-05T09:05:03.596Z,87.40
2022-10-05T09:06:03.557Z,86.52
2022-10-05T09:07:03.510Z,86.57
2022-10-05T09:08:03.472Z,82.03
2022-10-05T09:09:03.465Z,82.57
2022-10-05T09:10:03.386Z,83.34
2022-10-05T09:11:03.345Z,83.61
2022-10-05T09:12:03.313Z,85.83
2022-10-05T09:13:03.258Z,86.99
2022-10-05T09:14:03.219Z,86.99
2022-10-05T09:15:24.258Z,87.81
2022-10-05T09:16:03.338Z,90.59
2022-10-05T09:17:03.090Z,89.63
2022-10-05T09:18:03.051Z,87.21
2022-10-05T09:19:03.008Z,85.38
2022-10-05T09:20:02.999Z,84.95
2022-10-05T09:21:02.940Z,86.26
2022-10-05T09:22:02.879Z,87.46
2022-10-05T09:23:02.836Z,85.43
2022-10-05T09:24:02.790Z,86.88
2022-10-05T09:25:02.750Z,87.07
2022-10-05T09:26:02.730Z,84.99
2022-10-05T09:27:02.662Z,85.38
2022-10-05T09:28:02.667Z,84.80
2022-10-05T09:29:02.577Z,85.33
2022-10-05T09:30:02.529Z,84.69
2022-10-05T09:31:02.589Z,85.70
2022-10-05T09:32:02.460Z,83.56
2022-10-05T09:33:02.398Z,81.05
2022-10-05T09:34:02.367Z,79.47
2022-10-05T09:35:02.317Z,80.78
2022-10-05T09:36:02.269Z,81.26
2022-10-05T09:37:02.301Z,81.66
2022-10-05T09:38:02.179Z,82.82
2022-10-05T09:39:02.137Z,82.67
2022-10-05T09:40:02.093Z,82.68
2022-10-05T09:41:02.050Z,83.55
2022-10-05T09:42:02.010Z,84.03
2022-10-05T09:43:02.000Z,84.32
2022-10-05T09:44:01.917Z,83.94
2022-10-05T09:45:01.872Z,85.24
2022-10-05T09:46:01.874Z,85.63
2022-10-05T09:47:01.843Z,84.76
2022-10-05T09:48:01.764Z,84.42
2022-10-05T09:49:01.694Z,84.18
2022-10-05T09:50:01.656Z,85.88
2022-10-05T09:51:01.606Z,87.90
2022-10-05T09:52:01.559Z,88.53
2022-10-05T09:53:01.520Z,87.18
2022-10-05T09:54:01.508Z,87.18
2022-10-05T09:55:02.314Z,88.91
2022-10-05T09:56:01.379Z,88.33
2022-10-05T09:57:01.333Z,88.14
2022-10-05T09:58:01.288Z,87.37
2022-10-05T09:59:01.242Z,88.10
2022-10-05T10:00:01.272Z,89.50
2022-10-05T10:01:09.453Z,90.80
2022-10-05T10:02:01.154Z,90.70
2022-10-05T10:03:01.202Z,91.75
2022-10-05T10:04:01.013Z,92.05
2022-10-05T10:05:00.964Z,91.28
2022-10-05T10:06:00.957Z,91.71
2022-10-05T10:07:00.873Z,91.37
2022-10-05T10:08:00.827Z,92.43
2022-10-05T10:09:00.784Z,92.38
2022-10-05T10:10:00.733Z,92.72
2022-10-05T10:11:00.688Z,94.26
2022-10-05T10:12:00.664Z,94.64
2022-10-05T10:13:00.592Z,95.60
2022-10-05T10:14:00.547Z,95.84
2022-10-05T10:15:02.840Z,96.13
2022-10-05T10:16:00.521Z,96.32
2022-10-05T10:17:00.403Z,96.66
2022-10-05T10:18:00.383Z,96.75
2022-10-05T10:19:00.317Z,95.41
2022-10-05T10:20:00.265Z,95.70
2022-10-05T10:21:00.219Z,96.03
2022-10-05T10:22:00.168Z,96.42
2022-10-05T10:23:00.125Z,96.80
2022-10-05T10:24:00.121Z,96.61
2022-10-05T10:25:00.029Z,97.28
2022-10-05T10:25:59.976Z,97.66
2022-10-05T10:26:59.928Z,97.56
2022-10-05T10:27:59.920Z,97.61
2022-10-05T10:28:59.859Z,96.70
2022-10-05T10:29:59.784Z,95.36
2022-10-05T10:30:59.762Z,96.27
2022-10-05T10:31:59.689Z,97.96
2022-10-05T10:32:59.642Z,97.33
2022-10-05T10:33:59.595Z,95.98
2022-10-05T10:34:59.573Z,95.26
2022-10-05T10:36:01.657Z,93.54
2022-10-05T10:36:59.454Z,94.49
2022-10-05T10:37:59.407Z,94.83
2022-10-05T10:38:59.360Z,95.50
2022-10-05T10:39:59.310Z,96.27
2022-10-05T10:40:59.280Z,96.66
2022-10-05T10:41:59.229Z,96.56
2022-10-05T10:42:59.188Z,96.08
2022-10-05T10:43:59.121Z,96.56
2022-10-05T10:44:59.079Z,96.85
2022-10-05T10:45:59.095Z,96.47
2022-10-05T10:46:59.115Z,97.47
2022-10-05T10:47:58.922Z,98.10
2022-10-05T10:48:58.874Z,97.76
2022-10-05T10:49:58.830Z,97.66
2022-10-05T10:50:58.779Z,98.24
2022-10-05T10:51:58.754Z,99.20
2022-10-05T10:52:58.810Z,98.82
2022-10-05T10:53:58.641Z,99.39
2022-10-05T10:54:58.589Z,99.01
2022-10-05T10:55:58.538Z,99.39
2022-10-05T10:56:58.533Z,99.20
2022-10-05T10:57:58.444Z,99.87
2022-10-05T10:58:58.405Z,99.63
2022-10-05T10:59:58.346Z,99.77
2022-10-05T11:00:58.301Z,99.77
2022-10-05T11:01:58.284Z,99.87
2022-10-05T11:02:58.295Z,99.68
2022-10-05T11:03:58.152Z,99.20
2022-10-05T11:04:58.105Z,99.77
2022-10-05T11:05:58.054Z,99.20
2022-10-05T11:06:58.005Z,99.29
2022-10-05T11:07:58.003Z,99.39
2022-10-05T11:08:57.919Z,99.25
2022-10-05T11:09:57.858Z,98.10
2022-10-05T11:10:57.810Z,98.10
2022-10-05T11:11:57.763Z,97.76
2022-10-05T11:12:57.714Z,96.61
2022-10-05T11:13:57.688Z,97.04
2022-10-05T11:14:57.616Z,97.71
2022-10-05T11:15:57.686Z,97.19
2022-10-05T11:16:57.519Z,97.57
2022-10-05T11:17:57.482Z,97.62
2022-10-05T11:18:57.440Z,96.90
2022-10-05T11:20:05.394Z,94.83
2022-10-05T11:20:57.325Z,93.48
2022-10-05T11:21:57.278Z,93.87
2022-10-05T11:22:57.231Z,93.44
2022-10-05T11:23:57.210Z,94.01
2022-10-05T11:24:57.131Z,93.91
2022-10-05T11:25:57.086Z,96.13
2022-10-05T11:26:57.036Z,94.88
2022-10-05T11:27:57.040Z,93.68
2022-10-05T11:28:56.940Z,94.87
2022-10-05T11:29:56.912Z,92.95
2022-10-05T11:30:56.903Z,91.75
2022-10-05T11:31:56.824Z,91.69
2022-10-05T11:32:56.748Z,90.44
2022-10-05T11:33:56.702Z,89.19
2022-10-05T11:34:56.677Z,88.28
2022-10-05T11:35:56.671Z,88.38
2022-10-05T11:36:56.559Z,90.69
2022-10-05T11:37:56.512Z,91.21
2022-10-05T11:38:56.514Z,89.86
2022-10-05T11:39:56.418Z,89.53
2022-10-05T11:40:56.393Z,87.94
2022-10-05T11:41:56.319Z,88.65
2022-10-05T11:42:56.272Z,88.04
2022-10-05T11:43:56.237Z,87.12
2022-10-05T11:44:56.180Z,88.46
2022-10-05T11:45:56.132Z,86.88
2022-10-05T11:46:56.180Z,86.45
2022-10-05T11:47:56.894Z,87.95
2022-10-05T11:48:55.993Z,89.82
2022-10-05T11:49:55.960Z,89.96
2022-10-05T11:50:55.898Z,88.42
2022-10-05T11:51:55.895Z,87.94
2022-10-05T11:52:55.802Z,87.94
2022-10-05T11:53:55.811Z,88.81
2022-10-05T11:55:10.255Z,89.10
2022-10-05T11:55:55.680Z,89.39
2022-10-05T11:56:56.254Z,90.45
2022-10-05T11:57:55.608Z,91.55
2022-10-05T11:58:55.523Z,89.82
2022-10-05T11:59:55.477Z,89.20
2022-10-05T12:00:55.431Z,89.64
2022-10-05T12:01:55.383Z,92.66
2022-10-05T12:02:55.416Z,91.80
2022-10-05T12:03:55.434Z,91.70
2022-10-05T12:04:55.274Z,90.30
2022-10-05T12:05:55.197Z,89.86
2022-10-05T12:06:55.149Z,88.75
2022-10-05T12:07:55.104Z,87.02
2022-10-05T12:08:55.087Z,86.49
2022-10-05T12:09:55.047Z,87.60
2022-10-05T12:10:54.967Z,87.60
2022-10-05T12:11:57.898Z,86.40
2022-10-05T12:12:54.871Z,87.17
2022-10-05T12:13:54.823Z,88.09
2022-10-05T12:14:54.797Z,89.29
2022-10-05T12:15:54.799Z,89.97
2022-10-05T12:16:54.684Z,90.16
2022-10-05T12:17:54.635Z,90.20
2022-10-05T12:18:54.599Z,89.34
2022-10-05T12:19:54.581Z,90.59
2022-10-05T12:20:54.493Z,89.72
2022-10-05T12:21:54.447Z,89.39
2022-10-05T12:22:54.403Z,88.32
2022-10-05T12:23:54.354Z,89.24
2022-10-05T12:24:54.308Z,89.09
2022-10-05T12:25:54.276Z,89.15
2022-10-05T12:26:54.249Z,90.64
2022-10-05T12:27:54.253Z,89.72
2022-10-05T12:28:54.123Z,89.53
2022-10-05T12:29:54.099Z,88.32
2022-10-05T12:30:54.052Z,90.78
2022-10-05T12:31:53.982Z,91.55
2022-10-05T12:32:55.876Z,90.78
2022-10-05T12:33:53.893Z,91.12
2022-10-05T12:35:01.040Z,91.12
2022-10-05T12:35:53.798Z,91.21
2022-10-05T12:37:07.219Z,89.77
2022-10-05T12:37:53.699Z,90.20
2022-10-05T12:38:53.654Z,90.00
2022-10-05T12:39:53.613Z,89.76
2022-10-05T12:40:53.567Z,88.17
2022-10-05T12:41:53.551Z,87.90
2022-10-05T12:42:53.524Z,91.17
2022-10-05T12:43:53.419Z,91.02
2022-10-05T12:44:53.402Z,90.34
2022-10-05T12:45:53.369Z,90.50
2022-10-05T12:46:53.278Z,90.97
2022-10-05T12:47:54.041Z,93.04
2022-10-05T12:48:53.191Z,91.99
2022-10-05T12:49:53.140Z,90.64
2022-10-05T12:50:53.111Z,90.25
2022-10-05T12:51:53.047Z,90.78